FWA weather

Fort Wayne International Airport
Fort Wayne, Indiana, United States

Public forecast

Using degrees Fahrenheit for public forecast. Weather courtesy of forecast.io.

Current aviation weather report (METAR) for Fort Wayne International Airport

Retrieved 2019/10/19 06:54 UTC (8 minutes ago):

KFWA 190654Z 00000KT 10SM CLR 03/01 A2998 RMK AO2 SLP153 T00280006

Aviation forecast (TAF) for Fort Wayne International Airport

Retrieved 2019/10/19 06:27 UTC (35 minutes ago):

TAF KFWA 190525Z 1906/2006 VRB03KT P6SM FEW250 FM191400 15008KT P6SM SCT250